Weather at Ali Friuli Airfield

Public forecast

Using degrees Celsius for public forecast. Weather courtesy of forecast.io.

Closest aviation weather report (METAR) to Ali Friuli Airfield

Closest report is Trieste–Friuli Venezia Giulia Airport, 13.9 nm (25.7 km) S.

2024/05/21 15:50 (retrieved 19 minutes ago)

LIPQ 211550Z AUTO 18007KT 9999 -RA BKN009/// BKN092/// 18/17 Q1006

Closest aviation forecast (TAF) to Ali Friuli Airfield

Closest forecast is Trieste–Friuli Venezia Giulia Airport, 13.9 nm (25.7 km) S.

2024/05/21 12:00 (retrieved 4 hours ago)

TAF LIPQ 211100Z 2112/2212 18010KT 6000 RA SCT030 TEMPO 2112/2120 3000 TSRA BKN008 BECMG 2119/2121 NSW